Time;durP1;ratioP1;P1;durP2;ratioP2;P2;SDS_P1;SDS_P2;PMS_P1;PMS_P2;Temp;Humidity;BMP_temperature;BMP_pressure;BME280_temperature;BME280_humidity;BME280_pressure;Samples;Min_cycle;Max_cycle;Signal;HPM_P1;HPM_P2
2022/03/31 00:00:59;;;;;;;4.30;0.80;;;3.10;99.90;;;;;;5023825;28;20488;-72
2022/03/31 00:03:25;;;;;;;3.03;1.00;;;3.10;99.90;;;;;;5021781;28;20041;-72
2022/03/31 00:05:51;;;;;;;2.30;0.50;;;3.20;99.90;;;;;;5020441;28;20049;-71
2022/03/31 00:08:19;;;;;;;2.20;0.38;;;3.20;99.90;;;;;;5021176;28;20049;-71
2022/03/31 00:10:47;;;;;;;3.85;0.50;;;3.20;99.90;;;;;;5018773;28;20064;-71
2022/03/31 00:13:16;;;;;;;3.17;0.57;;;3.20;99.90;;;;;;5023063;28;20878;-72
2022/03/31 00:15:42;;;;;;;4.30;0.50;;;3.20;99.90;;;;;;5020330;28;20088;-72
2022/03/31 00:18:09;;;;;;;6.20;1.95;;;3.20;99.90;;;;;;5021365;28;20476;-72
2022/03/31 00:23:57;;;;;;;3.58;0.68;;;3.30;99.90;;;;;;5020652;28;20041;-72
2022/03/31 00:26:23;;;;;;;8.13;0.80;;;3.30;99.90;;;;;;5025153;28;20068;-72
2022/03/31 00:28:48;;;;;;;3.42;0.40;;;3.30;99.90;;;;;;5020908;28;20033;-72
2022/03/31 00:31:14;;;;;;;3.28;0.52;;;3.30;99.90;;;;;;5024761;28;20033;-71
2022/03/31 00:33:39;;;;;;;3.17;0.47;;;3.30;99.90;;;;;;5024901;28;20053;-72
2022/03/31 00:36:05;;;;;;;5.88;0.57;;;3.30;99.90;;;;;;5020524;28;20033;-71
2022/03/31 00:38:31;;;;;;;5.38;0.60;;;3.30;99.90;;;;;;5024600;28;20029;-72
2022/03/31 00:40:57;;;;;;;4.30;0.75;;;3.30;99.90;;;;;;5019540;28;20163;-72
2022/03/31 00:43:22;;;;;;;2.10;0.70;;;3.40;99.90;;;;;;5021070;28;20127;-71
2022/03/31 00:45:48;;;;;;;4.28;0.57;;;3.40;99.90;;;;;;5019493;28;20034;-72
2022/03/31 00:48:15;;;;;;;2.22;0.57;;;3.30;99.90;;;;;;5023497;28;20040;-72
2022/03/31 00:50:42;;;;;;;3.83;0.50;;;3.30;99.90;;;;;;5021247;28;20033;-72
2022/03/31 00:53:08;;;;;;;2.20;0.40;;;3.40;99.90;;;;;;5025439;28;20415;-72
2022/03/31 00:55:35;;;;;;;4.72;0.55;;;3.30;99.90;;;;;;5021187;28;20037;-72
2022/03/31 00:58:01;;;;;;;2.05;0.50;;;3.40;99.90;;;;;;5024846;28;20053;-72
2022/03/31 01:00:27;;;;;;;5.22;0.63;;;3.40;99.90;;;;;;5019387;28;22181;-72
2022/03/31 01:02:53;;;;;;;4.68;0.43;;;3.30;99.90;;;;;;5024095;28;20049;-72
2022/03/31 01:05:18;;;;;;;1.67;0.40;;;3.40;99.90;;;;;;5022455;28;20049;-72
2022/03/31 01:07:44;;;;;;;4.93;0.40;;;3.40;99.90;;;;;;5024252;28;20045;-71
2022/03/31 01:10:11;;;;;;;1.55;0.60;;;3.50;99.90;;;;;;5018908;28;20065;-71
2022/03/31 01:12:38;;;;;;;4.00;0.28;;;3.40;99.90;;;;;;5020118;28;20038;-72
2022/03/31 01:15:17;;;;;;;4.50;0.40;;;3.50;99.90;;;;;;5022554;28;20083;-72
2022/03/31 01:17:44;;;;;;;2.95;0.45;;;3.50;99.90;;;;;;5021146;28;20412;-72
2022/03/31 01:20:14;;;;;;;5.10;0.40;;;3.50;99.90;;;;;;5023187;28;20045;-72
2022/03/31 01:22:42;;;;;;;4.43;0.57;;;3.50;99.90;;;;;;5035934;28;20049;-71
2022/03/31 01:25:09;;;;;;;3.70;0.40;;;3.50;99.90;;;;;;5022611;28;20057;-72
2022/03/31 01:27:37;;;;;;;4.82;0.50;;;3.50;99.90;;;;;;5019193;28;20049;-71
2022/03/31 01:30:14;;;;;;;3.95;0.50;;;3.50;99.90;;;;;;5018587;28;20120;-71
2022/03/31 01:32:41;;;;;;;2.80;0.40;;;3.40;99.90;;;;;;5021410;28;20049;-71
2022/03/31 01:35:07;;;;;;;3.05;0.32;;;3.50;99.90;;;;;;5020927;28;20499;-71
2022/03/31 01:37:33;;;;;;;4.65;1.42;;;3.40;99.90;;;;;;5021835;28;20052;-71
2022/03/31 01:39:59;;;;;;;1.00;0.30;;;3.40;99.90;;;;;;5019930;28;20042;-72
2022/03/31 01:42:28;;;;;;;1.25;0.70;;;3.40;99.90;;;;;;5020281;28;20091;-71
2022/03/31 01:44:55;;;;;;;3.20;0.40;;;3.30;99.90;;;;;;5018817;28;20135;-71
2022/03/31 01:47:21;;;;;;;1.75;0.28;;;3.40;99.90;;;;;;5019398;28;20038;-71
2022/03/31 01:49:47;;;;;;;3.53;0.40;;;3.30;99.90;;;;;;5020791;28;20038;-71
2022/03/31 01:52:12;;;;;;;3.42;0.30;;;3.30;99.90;;;;;;5018512;28;20041;-71
2022/03/31 01:54:38;;;;;;;2.30;0.30;;;3.30;99.90;;;;;;5024026;28;20139;-71
2022/03/31 01:57:05;;;;;;;4.05;0.30;;;3.30;99.90;;;;;;5023790;28;20064;-72
2022/03/31 01:59:35;;;;;;;2.13;0.30;;;3.30;99.90;;;;;;5020460;28;20057;-72
2022/03/31 02:02:01;;;;;;;2.45;0.30;;;3.30;99.90;;;;;;5021750;28;20640;-72
2022/03/31 02:04:27;;;;;;;5.97;0.57;;;3.40;99.90;;;;;;5019803;28;20171;-71
2022/03/31 02:06:52;;;;;;;4.25;0.50;;;3.30;99.90;;;;;;5020110;28;20121;-71
2022/03/31 02:09:18;;;;;;;4.80;0.70;;;3.30;99.90;;;;;;5020225;28;20025;-71
2022/03/31 02:11:45;;;;;;;7.03;0.70;;;3.30;99.90;;;;;;5024036;28;20041;-71
2022/03/31 02:14:12;;;;;;;6.45;0.75;;;3.20;99.90;;;;;;5023864;28;20408;-71
2022/03/31 02:16:38;;;;;;;2.38;0.32;;;3.30;99.90;;;;;;5024183;28;20037;-71
2022/03/31 02:19:03;;;;;;;4.15;0.65;;;3.20;99.90;;;;;;5023196;28;20061;-71
2022/03/31 02:21:29;;;;;;;5.25;0.55;;;3.20;99.90;;;;;;5024805;28;20069;-71
2022/03/31 02:23:56;;;;;;;7.97;0.50;;;3.20;99.90;;;;;;5024087;28;20053;-71
2022/03/31 02:26:21;;;;;;;5.45;0.60;;;3.10;99.90;;;;;;5023656;28;20049;-70
2022/03/31 02:28:47;;;;;;;2.47;0.70;;;3.10;99.90;;;;;;5023291;28;20551;-71
2022/03/31 02:31:13;;;;;;;8.70;0.70;;;3.10;99.90;;;;;;5023596;28;20492;-71
2022/03/31 02:33:39;;;;;;;4.50;0.57;;;3.00;99.90;;;;;;5021941;28;20500;-71
2022/03/31 02:36:06;;;;;;;5.05;0.73;;;3.10;99.90;;;;;;5041727;28;20037;-71
2022/03/31 02:38:32;;;;;;;4.35;1.05;;;3.10;99.90;;;;;;5032548;28;20045;-71
2022/03/31 02:40:57;;;;;;;1.65;0.50;;;3.10;99.90;;;;;;5023594;28;20515;-72
2022/03/31 02:43:23;;;;;;;3.58;1.05;;;3.10;99.90;;;;;;5025376;28;20034;-71
2022/03/31 02:45:49;;;;;;;4.43;0.82;;;3.20;99.90;;;;;;5024114;28;20057;-71
2022/03/31 02:48:15;;;;;;;7.88;1.17;;;3.10;99.90;;;;;;5022346;28;20045;-71
2022/03/31 02:50:40;;;;;;;3.50;0.82;;;3.10;99.90;;;;;;5020682;28;20037;-71
2022/03/31 02:55:50;;;;;;;4.80;1.08;;;3.00;99.90;;;;;;5022153;28;20046;-71
2022/03/31 02:58:16;;;;;;;4.63;0.88;;;3.00;99.90;;;;;;5024771;28;20040;-71
2022/03/31 03:00:41;;;;;;;4.10;1.05;;;3.10;99.90;;;;;;5024325;28;20045;-71
2022/03/31 03:03:08;;;;;;;4.60;1.02;;;3.00;99.90;;;;;;5023010;28;20148;-71
2022/03/31 03:05:34;;;;;;;5.60;1.45;;;3.00;99.90;;;;;;5008931;28;20051;-71
2022/03/31 03:08:00;;;;;;;5.10;1.73;;;3.10;99.90;;;;;;5022389;28;20456;-71
2022/03/31 03:10:26;;;;;;;5.07;2.00;;;3.10;99.90;;;;;;5022274;28;20060;-71
2022/03/31 03:12:52;;;;;;;4.38;1.70;;;3.10;99.90;;;;;;5022193;28;20038;-72
2022/03/31 03:15:18;;;;;;;5.55;1.77;;;3.10;99.90;;;;;;5025656;28;20053;-71
2022/03/31 03:17:45;;;;;;;4.15;1.90;;;3.10;99.90;;;;;;5023840;28;20038;-71
2022/03/31 03:20:14;;;;;;;3.95;2.05;;;3.00;99.90;;;;;;5037530;28;20038;-71
2022/03/31 03:22:45;;;;;;;3.40;1.40;;;3.10;99.90;;;;;;5022684;28;20416;-71
2022/03/31 03:25:12;;;;;;;3.85;1.83;;;3.10;99.90;;;;;;5024313;28;20622;-71
2022/03/31 03:27:39;;;;;;;5.00;2.00;;;3.20;99.90;;;;;;5022736;28;20379;-72
2022/03/31 03:30:06;;;;;;;4.70;2.20;;;3.10;99.90;;;;;;5021342;28;20124;-71
2022/03/31 03:32:32;;;;;;;8.70;3.10;;;3.20;99.90;;;;;;5020468;28;20042;-72
2022/03/31 03:34:58;;;;;;;4.47;2.75;;;3.20;99.90;;;;;;5024181;28;20396;-71
2022/03/31 03:37:23;;;;;;;6.20;3.65;;;3.30;99.90;;;;;;5024450;28;20041;-71
2022/03/31 03:39:49;;;;;;;7.70;5.43;;;3.30;99.90;;;;;;5025171;28;20049;-71
2022/03/31 03:42:15;;;;;;;14.07;5.72;;;3.20;99.90;;;;;;5025972;28;20041;-71
2022/03/31 03:44:41;;;;;;;9.07;6.55;;;3.30;99.90;;;;;;5022940;28;20034;-71
2022/03/31 03:47:07;;;;;;;8.18;6.45;;;3.30;99.90;;;;;;5021255;28;20109;-71
2022/03/31 03:49:33;;;;;;;7.30;6.32;;;3.30;99.90;;;;;;5021218;28;20431;-71
2022/03/31 03:51:59;;;;;;;8.75;6.00;;;3.30;99.90;;;;;;5022371;28;20136;-71
2022/03/31 03:54:26;;;;;;;9.32;6.55;;;3.30;99.90;;;;;;5019059;28;20042;-71
2022/03/31 03:56:51;;;;;;;6.68;5.70;;;3.30;99.90;;;;;;5022538;28;20368;-71
2022/03/31 03:59:18;;;;;;;10.27;6.10;;;3.30;99.90;;;;;;5024345;28;20136;-71
2022/03/31 04:01:44;;;;;;;6.15;5.55;;;3.30;99.90;;;;;;5023639;28;20040;-70
2022/03/31 04:04:10;;;;;;;6.03;5.35;;;3.40;99.90;;;;;;5025026;28;20832;-71
2022/03/31 04:06:36;;;;;;;5.80;5.28;;;3.30;99.90;;;;;;5022746;28;20056;-71
2022/03/31 04:09:03;;;;;;;8.95;5.65;;;3.40;99.90;;;;;;5024983;28;20083;-72
2022/03/31 04:11:29;;;;;;;5.25;4.75;;;3.30;99.90;;;;;;5021949;28;20408;-72
2022/03/31 04:13:54;;;;;;;5.72;5.03;;;3.40;99.90;;;;;;5008430;28;20045;-71
2022/03/31 04:16:20;;;;;;;5.68;4.63;;;3.40;99.90;;;;;;5026454;28;20409;-71
2022/03/31 04:18:45;;;;;;;5.55;4.40;;;3.40;99.90;;;;;;5024398;28;20038;-71
2022/03/31 04:21:11;;;;;;;4.60;4.10;;;3.40;99.90;;;;;;5020542;28;20037;-71
2022/03/31 04:23:37;;;;;;;5.35;4.13;;;3.40;99.90;;;;;;5020941;28;20657;-71
2022/03/31 04:26:03;;;;;;;4.88;3.75;;;3.30;99.90;;;;;;5019210;28;20687;-71
2022/03/31 04:28:29;;;;;;;4.70;3.72;;;3.40;99.90;;;;;;5017180;28;20041;-71
2022/03/31 04:30:54;;;;;;;4.57;3.35;;;3.40;99.90;;;;;;5020534;28;20042;-71
2022/03/31 04:33:20;;;;;;;4.72;3.72;;;3.30;99.90;;;;;;5021170;28;20806;-71
2022/03/31 04:35:46;;;;;;;6.32;4.15;;;3.30;99.90;;;;;;5022957;28;20044;-71
2022/03/31 04:38:11;;;;;;;4.82;3.55;;;3.20;99.90;;;;;;5022927;28;20395;-71
2022/03/31 04:40:37;;;;;;;4.53;3.65;;;3.20;99.90;;;;;;5021670;28;20037;-71
2022/03/31 04:43:03;;;;;;;3.70;3.30;;;3.20;99.90;;;;;;5021451;28;20120;-71
2022/03/31 04:45:28;;;;;;;4.45;3.45;;;3.20;99.90;;;;;;5021323;28;20037;-70
2022/03/31 04:47:54;;;;;;;3.58;3.28;;;3.20;99.90;;;;;;5020825;28;20053;-71
2022/03/31 04:50:20;;;;;;;3.80;3.50;;;3.20;99.90;;;;;;5021412;28;20191;-71
2022/03/31 04:52:46;;;;;;;5.90;4.07;;;3.20;99.90;;;;;;5020974;28;20048;-70
2022/03/31 04:55:12;;;;;;;4.00;3.55;;;3.20;99.90;;;;;;5016932;28;20026;-70
2022/03/31 04:57:38;;;;;;;4.63;4.22;;;3.10;99.90;;;;;;5023612;28;20034;-70
2022/03/31 05:00:05;;;;;;;5.35;4.85;;;3.10;99.90;;;;;;5019747;28;20042;-70
2022/03/31 05:02:31;;;;;;;6.30;5.18;;;3.10;99.90;;;;;;5022348;28;20076;-70
2022/03/31 05:04:57;;;;;;;6.43;5.30;;;3.10;99.90;;;;;;5022547;28;20084;-70
2022/03/31 05:07:23;;;;;;;7.25;6.45;;;3.10;99.90;;;;;;5024077;28;20056;-70
2022/03/31 05:09:49;;;;;;;7.07;6.20;;;3.20;99.90;;;;;;5034869;28;20419;-70
2022/03/31 05:12:14;;;;;;;6.55;5.95;;;3.00;99.90;;;;;;5022841;28;20057;-69
2022/03/31 05:14:40;;;;;;;7.18;6.45;;;3.00;99.90;;;;;;5022150;28;20041;-70
2022/03/31 05:17:06;;;;;;;6.28;5.68;;;3.00;99.90;;;;;;5019150;28;20034;-70
2022/03/31 05:19:33;;;;;;;6.93;6.30;;;3.00;99.90;;;;;;5020247;28;20045;-70
2022/03/31 05:21:58;;;;;;;8.18;7.38;;;3.00;99.90;;;;;;5021242;28;20052;-70
2022/03/31 05:24:24;;;;;;;8.70;7.90;;;3.00;99.90;;;;;;5020000;28;20723;-70
2022/03/31 05:26:53;;;;;;;8.82;8.00;;;3.00;99.90;;;;;;5017729;28;20049;-70
2022/03/31 05:29:20;;;;;;;8.15;7.30;;;2.90;99.90;;;;;;5024358;28;20045;-70
2022/03/31 05:31:46;;;;;;;8.43;7.53;;;2.90;99.90;;;;;;5024385;28;20489;-70
2022/03/31 05:34:12;;;;;;;8.13;7.32;;;2.90;99.90;;;;;;5021221;28;20090;-71
2022/03/31 05:36:38;;;;;;;8.70;7.38;;;3.00;99.90;;;;;;5020857;28;20025;-70
2022/03/31 05:39:04;;;;;;;8.02;7.18;;;3.00;99.90;;;;;;5022103;28;20056;-70
2022/03/31 05:41:30;;;;;;;8.10;7.35;;;3.00;99.90;;;;;;5022859;28;20049;-70
2022/03/31 05:43:56;;;;;;;8.52;7.70;;;3.00;99.90;;;;;;5018934;28;20050;-71
2022/03/31 05:46:22;;;;;;;8.82;7.93;;;3.10;99.90;;;;;;5022448;28;20102;-72
2022/03/31 05:48:48;;;;;;;8.60;7.80;;;3.00;99.90;;;;;;5024529;28;20116;-72
2022/03/31 05:51:14;;;;;;;8.98;8.02;;;3.10;99.90;;;;;;5022781;28;20125;-71
2022/03/31 05:53:40;;;;;;;8.20;7.35;;;3.10;99.90;;;;;;5025387;28;20050;-69
2022/03/31 05:56:07;;;;;;;9.23;8.23;;;3.00;99.90;;;;;;5027033;28;20041;-70
2022/03/31 05:58:33;;;;;;;8.15;7.35;;;3.10;99.90;;;;;;5026515;28;20041;-70
2022/03/31 06:00:59;;;;;;;9.05;8.15;;;3.00;99.90;;;;;;5023763;28;20696;-68
2022/03/31 06:03:25;;;;;;;8.10;7.30;;;3.10;99.90;;;;;;5021290;28;20048;-70
2022/03/31 06:05:52;;;;;;;9.23;8.32;;;3.10;99.90;;;;;;5021069;28;20076;-70
2022/03/31 06:08:18;;;;;;;8.55;7.75;;;3.10;99.90;;;;;;5023802;28;20120;-70
2022/03/31 06:10:45;;;;;;;8.52;7.72;;;3.20;99.90;;;;;;5023364;28;20040;-70
2022/03/31 06:13:11;;;;;;;8.02;7.28;;;3.20;99.90;;;;;;5023581;28;20522;-70
2022/03/31 06:15:37;;;;;;;7.88;7.10;;;3.20;99.90;;;;;;5022305;28;20059;-70
2022/03/31 06:18:04;;;;;;;8.05;7.22;;;3.40;99.90;;;;;;5026880;28;20551;-70
2022/03/31 06:20:31;;;;;;;9.07;8.27;;;3.20;99.90;;;;;;5021025;28;20052;-70
2022/03/31 06:22:57;;;;;;;8.20;7.40;;;3.30;99.90;;;;;;5019554;28;20050;-70
2022/03/31 06:25:23;;;;;;;8.90;8.00;;;3.30;99.90;;;;;;5025470;28;20045;-70
2022/03/31 06:27:49;;;;;;;8.35;7.55;;;3.30;99.90;;;;;;5024386;28;20136;-70
2022/03/31 06:30:16;;;;;;;8.15;7.40;;;3.40;99.90;;;;;;5024215;28;20121;-69
2022/03/31 06:32:42;;;;;;;8.77;7.97;;;3.40;99.90;;;;;;5025581;28;20100;-70
2022/03/31 06:35:14;;;;;;;8.32;7.53;;;3.30;99.90;;;;;;5025038;28;20100;-69
2022/03/31 06:37:41;;;;;;;7.72;7.00;;;3.30;99.90;;;;;;5026008;28;20083;-70
2022/03/31 06:40:10;;;;;;;8.43;7.63;;;3.40;99.90;;;;;;5022591;28;20044;-70
2022/03/31 06:42:36;;;;;;;8.80;8.00;;;3.40;99.90;;;;;;5021059;28;20042;-71
2022/03/31 06:45:02;;;;;;;8.23;7.47;;;3.40;99.90;;;;;;5023983;28;20049;-71
2022/03/31 06:47:28;;;;;;;8.15;7.45;;;3.50;99.90;;;;;;5021969;28;20041;-72
2022/03/31 06:49:54;;;;;;;9.00;8.10;;;3.40;99.90;;;;;;5011217;28;20049;-72
2022/03/31 06:52:19;;;;;;;9.57;8.68;;;3.50;99.90;;;;;;5024867;28;21250;-72
2022/03/31 06:54:45;;;;;;;9.20;7.32;;;3.50;99.90;;;;;;5026846;28;20037;-72
2022/03/31 06:57:12;;;;;;;6.20;5.60;;;3.60;99.90;;;;;;5022700;28;20120;-72
2022/03/31 06:59:38;;;;;;;5.93;5.43;;;3.60;99.90;;;;;;5021280;28;20425;-72
2022/03/31 07:02:04;;;;;;;5.35;4.90;;;3.70;99.90;;;;;;5021243;28;20125;-72
2022/03/31 07:04:30;;;;;;;5.55;5.15;;;3.70;99.90;;;;;;5023515;28;20087;-72
2022/03/31 07:06:55;;;;;;;6.07;5.57;;;3.60;99.90;;;;;;5025205;28;20045;-71
2022/03/31 07:09:21;;;;;;;5.40;4.90;;;3.60;99.90;;;;;;5019382;28;20487;-71
2022/03/31 07:11:46;;;;;;;5.70;5.20;;;3.70;99.90;;;;;;5023452;28;20052;-72
2022/03/31 07:14:12;;;;;;;4.80;4.35;;;3.70;99.90;;;;;;5026478;28;20052;-72
2022/03/31 07:16:38;;;;;;;4.65;4.15;;;3.70;99.90;;;;;;5026063;28;20156;-72
2022/03/31 07:19:04;;;;;;;4.40;3.83;;;3.70;99.90;;;;;;5022584;28;20026;-71
2022/03/31 07:21:30;;;;;;;5.03;4.63;;;3.70;99.90;;;;;;5023523;28;20164;-71
2022/03/31 07:23:56;;;;;;;5.00;4.57;;;3.70;99.90;;;;;;5025203;28;20051;-72
2022/03/31 07:26:22;;;;;;;5.03;4.63;;;3.70;99.90;;;;;;5021870;28;20067;-71
2022/03/31 07:28:49;;;;;;;4.85;4.45;;;3.80;99.90;;;;;;5020043;28;20067;-70
2022/03/31 07:31:15;;;;;;;5.43;4.88;;;3.70;99.90;;;;;;5021747;28;20034;-71
2022/03/31 07:33:41;;;;;;;4.97;4.57;;;3.70;99.90;;;;;;5021027;28;20057;-70
2022/03/31 07:36:07;;;;;;;5.25;4.85;;;3.80;99.90;;;;;;5025471;28;20857;-70
2022/03/31 07:38:33;;;;;;;5.30;4.90;;;3.80;99.90;;;;;;5024473;28;20057;-71
2022/03/31 07:40:59;;;;;;;5.53;5.10;;;3.80;99.90;;;;;;5022046;28;20276;-71
2022/03/31 07:43:27;;;;;;;5.65;5.07;;;3.70;99.90;;;;;;5021074;28;20590;-71
2022/03/31 07:45:53;;;;;;;5.93;5.43;;;3.80;99.90;;;;;;5022756;28;20041;-72
2022/03/31 07:48:18;;;;;;;6.05;5.45;;;3.90;99.90;;;;;;5025493;28;20042;-70
2022/03/31 07:50:45;;;;;;;6.55;5.95;;;3.80;99.90;;;;;;5023150;28;20435;-70
2022/03/31 07:53:11;;;;;;;6.75;6.15;;;3.90;99.90;;;;;;5022904;28;20120;-71
2022/03/31 07:55:37;;;;;;;6.80;6.20;;;3.80;99.90;;;;;;5020371;28;20037;-71
2022/03/31 07:58:03;;;;;;;6.40;5.80;;;3.90;99.90;;;;;;5022225;28;20176;-71
2022/03/31 08:00:29;;;;;;;6.93;6.32;;;3.90;99.90;;;;;;5020769;28;20143;-71
2022/03/31 08:02:59;;;;;;;6.18;5.63;;;3.90;99.90;;;;;;5021347;28;20108;-71
2022/03/31 08:05:27;;;;;;;6.53;6.03;;;3.90;99.90;;;;;;5024311;28;20037;-71
2022/03/31 08:07:53;;;;;;;6.97;6.38;;;3.80;99.90;;;;;;5022316;28;20054;-71
2022/03/31 08:10:20;;;;;;;7.47;6.88;;;3.80;99.90;;;;;;5021966;28;20038;-71
2022/03/31 08:12:46;;;;;;;6.45;5.75;;;3.90;99.90;;;;;;5036081;28;20045;-71
2022/03/31 08:15:15;;;;;;;5.22;4.78;;;3.80;99.90;;;;;;5021505;28;20072;-71
2022/03/31 08:17:42;;;;;;;5.90;5.40;;;3.90;99.90;;;;;;5022191;28;20045;-71
2022/03/31 08:20:10;;;;;;;5.50;5.00;;;3.80;99.90;;;;;;5020609;28;20055;-70
2022/03/31 08:22:37;;;;;;;4.63;4.18;;;3.80;99.90;;;;;;5020943;28;20171;-71
2022/03/31 08:25:03;;;;;;;5.00;4.60;;;3.60;99.90;;;;;;5023924;28;20048;-70
2022/03/31 08:27:32;;;;;;;5.93;5.22;;;3.60;99.90;;;;;;5018671;28;20029;-71
2022/03/31 08:29:58;;;;;;;5.53;5.03;;;3.60;99.90;;;;;;5021252;28;20598;-70
2022/03/31 08:32:24;;;;;;;4.70;4.30;;;3.60;99.90;;;;;;5021513;28;20029;-71
2022/03/31 08:34:50;;;;;;;4.65;4.25;;;3.70;99.90;;;;;;5003571;28;20045;-71
2022/03/31 08:37:15;;;;;;;4.97;4.53;;;3.70;99.90;;;;;;5018547;28;20033;-71
2022/03/31 08:39:41;;;;;;;5.03;4.63;;;3.70;99.90;;;;;;5020530;28;20133;-70
2022/03/31 08:42:07;;;;;;;4.72;4.18;;;3.60;99.90;;;;;;5020574;28;20125;-71
2022/03/31 08:44:35;;;;;;;4.50;4.10;;;3.60;99.90;;;;;;5020486;28;20087;-70
2022/03/31 08:47:01;;;;;;;4.68;4.35;;;3.70;99.90;;;;;;5023544;28;20042;-71
2022/03/31 08:49:29;;;;;;;4.82;4.32;;;3.70;99.90;;;;;;5019775;28;20034;-70
2022/03/31 08:51:55;;;;;;;4.78;4.38;;;3.80;99.90;;;;;;5022457;28;20042;-70
2022/03/31 08:54:21;;;;;;;4.80;4.38;;;3.80;99.90;;;;;;5020699;28;20045;-70
2022/03/31 08:56:47;;;;;;;5.15;4.65;;;3.70;99.90;;;;;;5021225;28;20041;-70
2022/03/31 08:59:13;;;;;;;5.50;4.68;;;3.70;99.90;;;;;;5021147;28;20044;-70
2022/03/31 09:01:39;;;;;;;5.28;3.90;;;3.70;99.90;;;;;;5019338;28;20034;-70
2022/03/31 09:04:06;;;;;;;4.25;3.85;;;3.70;99.90;;;;;;5020083;28;20029;-71
2022/03/31 09:06:32;;;;;;;3.58;3.28;;;3.70;99.90;;;;;;5022451;28;20490;-72
2022/03/31 09:09:03;;;;;;;4.88;3.47;;;3.70;99.90;;;;;;5022607;28;20045;-72
2022/03/31 09:11:34;;;;;;;3.35;3.05;;;3.60;99.90;;;;;;5022449;28;20033;-72
2022/03/31 09:14:02;;;;;;;2.75;2.42;;;3.60;99.90;;;;;;5018853;28;20154;-71
2022/03/31 09:16:30;;;;;;;3.08;2.70;;;3.50;99.90;;;;;;5021068;28;20068;-71
2022/03/31 09:19:04;;;;;;;3.47;1.92;;;3.50;99.90;;;;;;5016681;28;20487;-70
2022/03/31 09:21:31;;;;;;;2.22;2.03;;;3.50;99.90;;;;;;5020721;28;20029;-70
2022/03/31 09:23:58;;;;;;;2.65;2.20;;;3.50;99.90;;;;;;5020284;28;20064;-71
2022/03/31 09:26:27;;;;;;;2.20;2.00;;;3.40;99.90;;;;;;5020437;28;20439;-71
2022/03/31 09:28:55;;;;;;;2.20;2.00;;;3.30;99.90;;;;;;5020023;28;20048;-71
2022/03/31 09:31:25;;;;;;;5.20;2.28;;;3.30;99.90;;;;;;5023321;28;20120;-70
2022/03/31 09:33:56;;;;;;;2.03;1.90;;;3.20;99.90;;;;;;5018203;28;20395;-71
2022/03/31 09:36:24;;;;;;;2.13;1.92;;;3.10;99.90;;;;;;5021143;28;20056;-72
2022/03/31 09:39:02;;;;;;;1.80;1.58;;;3.20;99.90;;;;;;5018841;28;20041;-72
2022/03/31 09:41:30;;;;;;;1.67;1.52;;;3.10;99.90;;;;;;5020413;28;20160;-71
2022/03/31 09:43:58;;;;;;;2.38;2.17;;;3.10;99.90;;;;;;5018381;28;20420;-72
2022/03/31 09:46:29;;;;;;;2.97;2.10;;;3.00;99.90;;;;;;5022156;28;20045;-72
2022/03/31 09:48:56;;;;;;;2.20;2.00;;;2.90;99.90;;;;;;5022086;28;20041;-72
2022/03/31 09:51:23;;;;;;;2.38;2.13;;;2.90;99.90;;;;;;5018416;28;20037;-72
2022/03/31 09:53:53;;;;;;;2.15;1.77;;;2.90;99.90;;;;;;5020024;28;20060;-72
2022/03/31 09:56:26;;;;;;;2.72;2.10;;;2.90;99.90;;;;;;5022214;28;20095;-72
2022/03/31 09:58:55;;;;;;;3.05;1.85;;;3.00;99.90;;;;;;5022310;28;20052;-72
2022/03/31 10:01:22;;;;;;;2.28;1.98;;;2.90;99.90;;;;;;5021030;28;20029;-71
2022/03/31 10:03:49;;;;;;;2.40;2.20;;;3.00;99.90;;;;;;5021729;28;20041;-72
2022/03/31 10:06:16;;;;;;;2.60;2.40;;;3.00;99.90;;;;;;5023130;28;20056;-72
2022/03/31 10:08:44;;;;;;;4.75;3.17;;;2.90;99.90;;;;;;5020276;28;20088;-72
2022/03/31 10:11:11;;;;;;;3.13;2.90;;;2.90;99.90;;;;;;5022420;28;20339;-71
2022/03/31 10:13:43;;;;;;;3.05;2.67;;;2.90;99.90;;;;;;5018097;28;20064;-72
2022/03/31 10:16:16;;;;;;;3.25;2.95;;;2.90;99.90;;;;;;5021350;28;20119;-72
2022/03/31 10:18:47;;;;;;;3.80;3.20;;;2.90;99.90;;;;;;5017593;28;20103;-71
2022/03/31 10:21:13;;;;;;;3.08;2.78;;;3.00;99.90;;;;;;5021537;28;20120;-71
2022/03/31 10:26:33;;;;;;;3.65;3.35;;;3.00;99.90;;;;;;5022535;28;20495;-72
2022/03/31 10:29:10;;;;;;;4.50;4.10;;;3.00;99.90;;;;;;5020518;28;20116;-71
2022/03/31 10:31:44;;;;;;;3.75;3.45;;;3.10;99.90;;;;;;5018686;28;20042;-72
2022/03/31 10:34:11;;;;;;;3.88;3.58;;;3.00;99.90;;;;;;5024640;28;20054;-73
2022/03/31 10:36:41;;;;;;;3.60;3.30;;;3.10;99.90;;;;;;5022250;28;21409;-72
2022/03/31 10:39:14;;;;;;;4.25;3.85;;;3.00;99.90;;;;;;5025970;28;20569;-72
2022/03/31 10:41:42;;;;;;;3.28;3.03;;;3.00;99.90;;;;;;5023003;28;20053;-72
2022/03/31 10:44:11;;;;;;;3.58;3.28;;;3.00;99.90;;;;;;5019345;28;20489;-71
2022/03/31 10:46:37;;;;;;;3.47;3.17;;;3.00;99.90;;;;;;5026741;28;20098;-72
2022/03/31 10:49:07;;;;;;;3.80;3.50;;;3.00;99.90;;;;;;5022318;28;20487;-74
2022/03/31 10:51:38;;;;;;;3.50;3.20;;;2.90;99.90;;;;;;5018797;28;20484;-71
2022/03/31 10:54:06;;;;;;;3.72;3.42;;;2.90;99.90;;;;;;5019713;28;20083;-71
2022/03/31 10:56:33;;;;;;;3.63;3.30;;;3.00;99.90;;;;;;5022793;28;20063;-72
2022/03/31 10:59:01;;;;;;;3.53;3.22;;;2.80;99.90;;;;;;5025553;28;20404;-74
2022/03/31 11:01:33;;;;;;;3.88;3.58;;;2.90;99.90;;;;;;5020986;28;20100;-71
2022/03/31 11:04:06;;;;;;;3.97;3.65;;;2.80;99.90;;;;;;5024172;28;20057;-72
2022/03/31 11:06:33;;;;;;;4.35;3.95;;;2.80;99.90;;;;;;5023958;28;20033;-74
2022/03/31 11:08:58;;;;;;;3.63;3.33;;;2.80;99.90;;;;;;5022094;28;20042;-71
2022/03/31 11:11:29;;;;;;;3.97;3.58;;;2.80;99.90;;;;;;5023473;28;20060;-71
2022/03/31 11:13:57;;;;;;;3.65;3.33;;;2.80;99.90;;;;;;5024107;28;20053;-71
2022/03/31 11:16:37;;;;;;;3.67;3.38;;;2.70;99.90;;;;;;5023912;28;20042;-75
2022/03/31 11:19:04;;;;;;;4.13;3.72;;;2.60;99.90;;;;;;5022919;28;20041;-76
2022/03/31 11:21:38;;;;;;;4.03;3.72;;;2.60;99.90;;;;;;5022637;28;20034;-74
2022/03/31 11:24:06;;;;;;;4.97;4.57;;;2.50;99.90;;;;;;5021903;28;20052;-72
2022/03/31 11:26:40;;;;;;;5.78;5.28;;;2.50;99.90;;;;;;5024316;28;20037;-75
2022/03/31 11:29:17;;;;;;;6.10;5.50;;;2.40;99.90;;;;;;5024395;28;20056;-76
2022/03/31 11:31:49;;;;;;;5.72;5.22;;;2.30;99.90;;;;;;5023792;28;20410;-74
2022/03/31 11:34:26;;;;;;;6.63;5.93;;;2.30;99.90;;;;;;5021509;28;20550;-72
2022/03/31 11:36:54;;;;;;;6.57;5.97;;;2.30;99.90;;;;;;5023236;28;20041;-74
2022/03/31 11:39:27;;;;;;;6.38;5.78;;;2.30;99.90;;;;;;5019732;28;20037;-75
2022/03/31 11:41:54;;;;;;;5.40;4.88;;;2.20;99.90;;;;;;5018504;28;20716;-73
2022/03/31 11:44:21;;;;;;;5.90;5.40;;;2.20;99.90;;;;;;5022619;28;20057;-76
2022/03/31 11:46:49;;;;;;;5.90;5.32;;;2.00;99.90;;;;;;5023067;28;20038;-73
2022/03/31 11:49:19;;;;;;;6.25;5.07;;;2.10;99.90;;;;;;5010361;28;20066;-73
2022/03/31 11:51:56;;;;;;;6.68;6.03;;;2.10;99.90;;;;;;5020669;28;20049;-74
2022/03/31 11:54:22;;;;;;;6.38;5.78;;;2.10;99.90;;;;;;5022605;28;20077;-77
2022/03/31 11:57:02;;;;;;;5.70;5.13;;;2.00;99.90;;;;;;5018349;28;20116;-71
2022/03/31 11:59:28;;;;;;;5.65;5.15;;;2.10;99.90;;;;;;5007300;28;20037;-72
2022/03/31 12:01:53;;;;;;;4.95;4.45;;;2.30;99.90;;;;;;5025724;28;20423;-72
2022/03/31 12:04:24;;;;;;;4.82;4.32;;;2.20;99.90;;;;;;5024352;28;20045;-74
2022/03/31 12:06:54;;;;;;;4.72;4.22;;;2.20;99.90;;;;;;5019791;28;20085;-73
2022/03/31 12:09:26;;;;;;;4.07;3.67;;;2.40;99.90;;;;;;5021600;28;20045;-72
2022/03/31 12:11:55;;;;;;;4.97;4.47;;;2.30;99.90;;;;;;5021906;28;20050;-73
2022/03/31 12:14:21;;;;;;;3.95;3.55;;;2.30;99.90;;;;;;5019679;28;20041;-73
2022/03/31 12:16:50;;;;;;;2.83;2.53;;;2.30;99.90;;;;;;5021622;28;20035;-73
2022/03/31 12:19:17;;;;;;;2.60;2.33;;;2.30;99.90;;;;;;5019770;28;20048;-72
2022/03/31 12:21:50;;;;;;;3.55;3.22;;;2.30;99.90;;;;;;5021326;28;20072;-73
2022/03/31 12:24:16;;;;;;;3.90;3.60;;;2.30;99.90;;;;;;5017817;28;20041;-72
2022/03/31 12:26:55;;;;;;;3.47;3.20;;;2.20;99.90;;;;;;5020526;28;20068;-72
2022/03/31 12:29:22;;;;;;;3.03;2.75;;;2.30;99.90;;;;;;5022581;28;20049;-71
2022/03/31 12:32:01;;;;;;;4.20;3.80;;;2.40;99.90;;;;;;5002524;28;20214;-71
2022/03/31 12:34:27;;;;;;;4.00;3.58;;;2.30;99.90;;;;;;5018587;28;20128;-72
2022/03/31 12:36:53;;;;;;;4.35;3.95;;;2.20;99.90;;;;;;5024809;28;20121;-72
2022/03/31 12:39:19;;;;;;;4.50;4.10;;;2.30;99.90;;;;;;5016656;28;20040;-71
2022/03/31 12:41:53;;;;;;;4.90;4.47;;;2.30;99.90;;;;;;5020281;28;20476;-72
2022/03/31 12:44:21;;;;;;;4.65;4.25;;;2.20;99.90;;;;;;5021432;28;20045;-72
2022/03/31 12:46:58;;;;;;;4.78;4.38;;;2.30;99.90;;;;;;5019624;28;20510;-72
2022/03/31 12:49:34;;;;;;;5.25;4.75;;;2.20;99.90;;;;;;5021671;28;20049;-72
2022/03/31 12:52:03;;;;;;;5.20;4.72;;;2.20;99.90;;;;;;5021731;28;20048;-71
2022/03/31 12:54:36;;;;;;;5.43;4.93;;;2.20;99.90;;;;;;5019679;28;20030;-71
2022/03/31 12:57:05;;;;;;;5.22;4.82;;;2.30;99.90;;;;;;5022061;28;20034;-72
2022/03/31 12:59:36;;;;;;;5.72;5.13;;;2.20;99.90;;;;;;5021367;28;20041;-71
2022/03/31 13:02:10;;;;;;;6.10;5.50;;;2.30;99.90;;;;;;5022200;28;20407;-72
2022/03/31 13:04:41;;;;;;;6.03;5.45;;;2.30;99.90;;;;;;5023527;28;20492;-70
2022/03/31 13:07:11;;;;;;;6.47;5.88;;;2.20;99.90;;;;;;5020555;28;20049;-71